sensor_id;sensor_type;location;lat;lon;timestamp;P1;durP1;ratioP1;P2;durP2;ratioP2
11171;SDS011;5642;50.830;12.082;2024-03-08T00:01:00;5.47;;;4.68;;
11171;SDS011;5642;50.830;12.082;2024-03-08T00:03:27;5.60;;;4.75;;
11171;SDS011;5642;50.830;12.082;2024-03-08T00:05:56;5.60;;;5.05;;
11171;SDS011;5642;50.830;12.082;2024-03-08T00:08:22;5.75;;;5.20;;
11171;SDS011;5642;50.830;12.082;2024-03-08T00:10:49;5.88;;;5.15;;
11171;SDS011;5642;50.830;12.082;2024-03-08T00:13:18;7.53;;;5.40;;
11171;SDS011;5642;50.830;12.082;2024-03-08T00:15:44;6.10;;;5.07;;
11171;SDS011;5642;50.830;12.082;2024-03-08T00:18:11;5.88;;;5.28;;
11171;SDS011;5642;50.830;12.082;2024-03-08T00:20:38;5.53;;;4.88;;
11171;SDS011;5642;50.830;12.082;2024-03-08T00:23:06;6.32;;;5.68;;
11171;SDS011;5642;50.830;12.082;2024-03-08T00:25:33;5.65;;;5.05;;
11171;SDS011;5642;50.830;12.082;2024-03-08T00:28:01;6.25;;;5.20;;
11171;SDS011;5642;50.830;12.082;2024-03-08T00:30:27;5.72;;;4.80;;
11171;SDS011;5642;50.830;12.082;2024-03-08T00:32:54;5.75;;;5.03;;
11171;SDS011;5642;50.830;12.082;2024-03-08T00:35:21;6.03;;;5.05;;
11171;SDS011;5642;50.830;12.082;2024-03-08T00:37:48;6.40;;;5.38;;
11171;SDS011;5642;50.830;12.082;2024-03-08T00:40:17;6.43;;;5.07;;
11171;SDS011;5642;50.830;12.082;2024-03-08T00:42:44;6.05;;;5.05;;
11171;SDS011;5642;50.830;12.082;2024-03-08T00:45:10;5.20;;;4.70;;
11171;SDS011;5642;50.830;12.082;2024-03-08T00:47:37;6.80;;;5.35;;
11171;SDS011;5642;50.830;12.082;2024-03-08T00:50:04;6.13;;;5.00;;
11171;SDS011;5642;50.830;12.082;2024-03-08T00:52:31;5.68;;;4.97;;
11171;SDS011;5642;50.830;12.082;2024-03-08T00:54:57;5.88;;;5.15;;
11171;SDS011;5642;50.830;12.082;2024-03-08T00:57:24;5.57;;;4.53;;
11171;SDS011;5642;50.830;12.082;2024-03-08T00:59:52;5.47;;;4.95;;
11171;SDS011;5642;50.830;12.082;2024-03-08T01:02:18;5.38;;;4.70;;
11171;SDS011;5642;50.830;12.082;2024-03-08T01:04:44;4.72;;;4.32;;
11171;SDS011;5642;50.830;12.082;2024-03-08T01:07:12;5.35;;;4.85;;
11171;SDS011;5642;50.830;12.082;2024-03-08T01:09:39;4.93;;;4.43;;
11171;SDS011;5642;50.830;12.082;2024-03-08T01:12:06;5.00;;;4.50;;
11171;SDS011;5642;50.830;12.082;2024-03-08T01:14:33;5.07;;;4.57;;
11171;SDS011;5642;50.830;12.082;2024-03-08T01:16:59;4.88;;;4.38;;
11171;SDS011;5642;50.830;12.082;2024-03-08T01:19:25;6.10;;;4.75;;
11171;SDS011;5642;50.830;12.082;2024-03-08T01:21:53;5.28;;;4.72;;
11171;SDS011;5642;50.830;12.082;2024-03-08T01:24:23;5.63;;;5.07;;
11171;SDS011;5642;50.830;12.082;2024-03-08T01:26:50;5.18;;;4.68;;
11171;SDS011;5642;50.830;12.082;2024-03-08T01:29:16;5.32;;;4.82;;
11171;SDS011;5642;50.830;12.082;2024-03-08T01:31:44;5.35;;;4.85;;
11171;SDS011;5642;50.830;12.082;2024-03-08T01:34:11;5.60;;;5.07;;
11171;SDS011;5642;50.830;12.082;2024-03-08T01:36:38;4.78;;;4.30;;
11171;SDS011;5642;50.830;12.082;2024-03-08T01:39:04;6.60;;;5.65;;
11171;SDS011;5642;50.830;12.082;2024-03-08T01:41:33;5.93;;;4.80;;
11171;SDS011;5642;50.830;12.082;2024-03-08T01:44:02;5.40;;;4.85;;
11171;SDS011;5642;50.830;12.082;2024-03-08T01:46:31;6.28;;;5.07;;
11171;SDS011;5642;50.830;12.082;2024-03-08T01:48:58;6.75;;;5.10;;
11171;SDS011;5642;50.830;12.082;2024-03-08T01:51:27;5.55;;;4.88;;
11171;SDS011;5642;50.830;12.082;2024-03-08T01:53:55;5.88;;;5.18;;
11171;SDS011;5642;50.830;12.082;2024-03-08T01:56:24;5.93;;;5.00;;
11171;SDS011;5642;50.830;12.082;2024-03-08T01:58:52;6.43;;;5.15;;
11171;SDS011;5642;50.830;12.082;2024-03-08T02:01:19;6.28;;;5.60;;
11171;SDS011;5642;50.830;12.082;2024-03-08T02:03:46;5.68;;;4.93;;
11171;SDS011;5642;50.830;12.082;2024-03-08T02:06:13;5.53;;;5.03;;
11171;SDS011;5642;50.830;12.082;2024-03-08T02:08:43;5.40;;;4.87;;
11171;SDS011;5642;50.830;12.082;2024-03-08T02:11:11;6.17;;;5.43;;
11171;SDS011;5642;50.830;12.082;2024-03-08T02:13:38;5.60;;;5.00;;
11171;SDS011;5642;50.830;12.082;2024-03-08T02:16:05;5.40;;;4.47;;
11171;SDS011;5642;50.830;12.082;2024-03-08T02:18:35;5.88;;;5.03;;
11171;SDS011;5642;50.830;12.082;2024-03-08T02:21:03;5.60;;;5.00;;
11171;SDS011;5642;50.830;12.082;2024-03-08T02:23:30;6.50;;;5.43;;
11171;SDS011;5642;50.830;12.082;2024-03-08T02:25:59;5.63;;;5.03;;
11171;SDS011;5642;50.830;12.082;2024-03-08T02:28:27;5.50;;;4.97;;
11171;SDS011;5642;50.830;12.082;2024-03-08T02:30:54;5.27;;;4.77;;
11171;SDS011;5642;50.830;12.082;2024-03-08T02:33:22;5.80;;;4.90;;
11171;SDS011;5642;50.830;12.082;2024-03-08T02:35:49;5.93;;;5.32;;
11171;SDS011;5642;50.830;12.082;2024-03-08T02:38:17;6.40;;;5.37;;
11171;SDS011;5642;50.830;12.082;2024-03-08T02:40:47;5.93;;;5.33;;
11171;SDS011;5642;50.830;12.082;2024-03-08T02:43:16;6.22;;;5.15;;
11171;SDS011;5642;50.830;12.082;2024-03-08T02:45:43;7.18;;;6.03;;
11171;SDS011;5642;50.830;12.082;2024-03-08T02:48:11;7.78;;;6.40;;
11171;SDS011;5642;50.830;12.082;2024-03-08T02:50:39;6.68;;;6.03;;
11171;SDS011;5642;50.830;12.082;2024-03-08T02:53:08;6.13;;;5.35;;
11171;SDS011;5642;50.830;12.082;2024-03-08T02:55:36;6.47;;;5.73;;
11171;SDS011;5642;50.830;12.082;2024-03-08T02:58:04;6.53;;;5.78;;
11171;SDS011;5642;50.830;12.082;2024-03-08T03:00:31;6.77;;;5.70;;
11171;SDS011;5642;50.830;12.082;2024-03-08T03:02:58;6.05;;;5.20;;
11171;SDS011;5642;50.830;12.082;2024-03-08T03:05:25;5.97;;;5.37;;
11171;SDS011;5642;50.830;12.082;2024-03-08T03:07:53;6.77;;;5.67;;
11171;SDS011;5642;50.830;12.082;2024-03-08T03:10:20;6.57;;;5.13;;
11171;SDS011;5642;50.830;12.082;2024-03-08T03:12:48;5.60;;;5.03;;
11171;SDS011;5642;50.830;12.082;2024-03-08T03:15:15;5.90;;;5.25;;
11171;SDS011;5642;50.830;12.082;2024-03-08T03:17:50;5.78;;;4.95;;
11171;SDS011;5642;50.830;12.082;2024-03-08T03:20:17;5.70;;;5.10;;
11171;SDS011;5642;50.830;12.082;2024-03-08T03:22:54;5.05;;;4.55;;
11171;SDS011;5642;50.830;12.082;2024-03-08T03:25:23;6.45;;;5.10;;
11171;SDS011;5642;50.830;12.082;2024-03-08T03:27:52;5.83;;;5.17;;
11171;SDS011;5642;50.830;12.082;2024-03-08T03:30:23;5.53;;;4.75;;
11171;SDS011;5642;50.830;12.082;2024-03-08T03:32:53;5.28;;;4.75;;
11171;SDS011;5642;50.830;12.082;2024-03-08T03:35:26;4.88;;;4.40;;
11171;SDS011;5642;50.830;12.082;2024-03-08T03:37:53;5.38;;;4.88;;
11171;SDS011;5642;50.830;12.082;2024-03-08T03:40:34;5.50;;;4.80;;
11171;SDS011;5642;50.830;12.082;2024-03-08T03:43:02;5.63;;;5.00;;
11171;SDS011;5642;50.830;12.082;2024-03-08T03:45:30;5.95;;;4.78;;
11171;SDS011;5642;50.830;12.082;2024-03-08T03:48:01;5.43;;;4.93;;
11171;SDS011;5642;50.830;12.082;2024-03-08T03:50:28;6.43;;;5.22;;
11171;SDS011;5642;50.830;12.082;2024-03-08T03:52:55;6.68;;;4.93;;
11171;SDS011;5642;50.830;12.082;2024-03-08T03:55:21;6.38;;;5.03;;
11171;SDS011;5642;50.830;12.082;2024-03-08T03:57:48;5.72;;;5.13;;
11171;SDS011;5642;50.830;12.082;2024-03-08T04:00:16;5.10;;;4.60;;
11171;SDS011;5642;50.830;12.082;2024-03-08T04:02:42;5.67;;;4.80;;
11171;SDS011;5642;50.830;12.082;2024-03-08T04:05:09;6.10;;;5.17;;
11171;SDS011;5642;50.830;12.082;2024-03-08T04:07:37;5.57;;;5.00;;
11171;SDS011;5642;50.830;12.082;2024-03-08T04:10:06;6.60;;;5.47;;
11171;SDS011;5642;50.830;12.082;2024-03-08T04:12:34;5.47;;;4.90;;
11171;SDS011;5642;50.830;12.082;2024-03-08T04:15:00;5.80;;;4.80;;
11171;SDS011;5642;50.830;12.082;2024-03-08T04:17:28;5.60;;;5.00;;
11171;SDS011;5642;50.830;12.082;2024-03-08T04:19:55;6.18;;;5.40;;
11171;SDS011;5642;50.830;12.082;2024-03-08T04:22:23;5.53;;;4.90;;
11171;SDS011;5642;50.830;12.082;2024-03-08T04:24:50;6.83;;;5.20;;
11171;SDS011;5642;50.830;12.082;2024-03-08T04:27:16;6.20;;;5.13;;
11171;SDS011;5642;50.830;12.082;2024-03-08T04:29:42;5.80;;;5.20;;
11171;SDS011;5642;50.830;12.082;2024-03-08T04:32:09;5.80;;;4.95;;
11171;SDS011;5642;50.830;12.082;2024-03-08T04:34:36;6.67;;;5.53;;
11171;SDS011;5642;50.830;12.082;2024-03-08T04:37:03;6.03;;;5.28;;
11171;SDS011;5642;50.830;12.082;2024-03-08T04:39:33;5.43;;;4.90;;
11171;SDS011;5642;50.830;12.082;2024-03-08T04:42:01;5.93;;;5.00;;
11171;SDS011;5642;50.830;12.082;2024-03-08T04:44:37;6.93;;;5.13;;
11171;SDS011;5642;50.830;12.082;2024-03-08T04:47:05;5.50;;;4.83;;
11171;SDS011;5642;50.830;12.082;2024-03-08T04:49:34;5.70;;;5.13;;
11171;SDS011;5642;50.830;12.082;2024-03-08T04:52:05;5.40;;;4.88;;
11171;SDS011;5642;50.830;12.082;2024-03-08T04:54:33;6.03;;;5.10;;
11171;SDS011;5642;50.830;12.082;2024-03-08T04:57:01;6.13;;;4.97;;
11171;SDS011;5642;50.830;12.082;2024-03-08T04:59:27;5.57;;;4.97;;
11171;SDS011;5642;50.830;12.082;2024-03-08T05:01:54;6.03;;;5.30;;
11171;SDS011;5642;50.830;12.082;2024-03-08T05:04:21;7.55;;;5.47;;
11171;SDS011;5642;50.830;12.082;2024-03-08T05:06:48;6.53;;;5.35;;
11171;SDS011;5642;50.830;12.082;2024-03-08T05:09:20;5.43;;;4.93;;
11171;SDS011;5642;50.830;12.082;2024-03-08T05:11:52;6.03;;;5.13;;
11171;SDS011;5642;50.830;12.082;2024-03-08T05:14:19;5.37;;;4.87;;
11171;SDS011;5642;50.830;12.082;2024-03-08T05:16:47;5.40;;;4.80;;
11171;SDS011;5642;50.830;12.082;2024-03-08T05:19:17;5.80;;;5.13;;
11171;SDS011;5642;50.830;12.082;2024-03-08T05:21:55;5.95;;;5.10;;
11171;SDS011;5642;50.830;12.082;2024-03-08T05:24:23;5.90;;;5.20;;
11171;SDS011;5642;50.830;12.082;2024-03-08T05:27:05;5.60;;;5.03;;
11171;SDS011;5642;50.830;12.082;2024-03-08T05:29:33;5.15;;;4.65;;
11171;SDS011;5642;50.830;12.082;2024-03-08T05:32:00;5.68;;;4.82;;
11171;SDS011;5642;50.830;12.082;2024-03-08T05:34:28;5.60;;;5.00;;
11171;SDS011;5642;50.830;12.082;2024-03-08T05:36:55;6.32;;;4.97;;
11171;SDS011;5642;50.830;12.082;2024-03-08T05:39:31;6.03;;;4.90;;
11171;SDS011;5642;50.830;12.082;2024-03-08T05:41:59;5.47;;;4.87;;
11171;SDS011;5642;50.830;12.082;2024-03-08T05:44:26;5.35;;;4.82;;
11171;SDS011;5642;50.830;12.082;2024-03-08T05:46:54;5.97;;;5.28;;
11171;SDS011;5642;50.830;12.082;2024-03-08T05:49:23;6.45;;;5.47;;
11171;SDS011;5642;50.830;12.082;2024-03-08T05:51:51;6.72;;;5.40;;
11171;SDS011;5642;50.830;12.082;2024-03-08T05:54:22;6.13;;;5.20;;
11171;SDS011;5642;50.830;12.082;2024-03-08T05:56:54;6.53;;;5.28;;
11171;SDS011;5642;50.830;12.082;2024-03-08T05:59:26;5.40;;;4.87;;
11171;SDS011;5642;50.830;12.082;2024-03-08T06:01:52;6.82;;;5.35;;
11171;SDS011;5642;50.830;12.082;2024-03-08T06:04:18;6.07;;;5.47;;
11171;SDS011;5642;50.830;12.082;2024-03-08T06:06:46;6.47;;;5.43;;
11171;SDS011;5642;50.830;12.082;2024-03-08T06:09:13;6.20;;;5.40;;
11171;SDS011;5642;50.830;12.082;2024-03-08T06:11:53;5.35;;;4.82;;
11171;SDS011;5642;50.830;12.082;2024-03-08T06:14:23;5.95;;;5.07;;
11171;SDS011;5642;50.830;12.082;2024-03-08T06:16:50;6.32;;;5.47;;
11171;SDS011;5642;50.830;12.082;2024-03-08T06:19:17;6.10;;;5.32;;
11171;SDS011;5642;50.830;12.082;2024-03-08T06:21:51;5.83;;;5.03;;
11171;SDS011;5642;50.830;12.082;2024-03-08T06:24:20;5.57;;;4.97;;
11171;SDS011;5642;50.830;12.082;2024-03-08T06:26:48;6.80;;;5.80;;
11171;SDS011;5642;50.830;12.082;2024-03-08T06:29:22;6.60;;;5.90;;
11171;SDS011;5642;50.830;12.082;2024-03-08T06:31:54;5.60;;;5.03;;
11171;SDS011;5642;50.830;12.082;2024-03-08T06:34:20;6.43;;;5.30;;
11171;SDS011;5642;50.830;12.082;2024-03-08T06:36:47;5.75;;;5.18;;
11171;SDS011;5642;50.830;12.082;2024-03-08T06:39:13;7.43;;;5.70;;
11171;SDS011;5642;50.830;12.082;2024-03-08T06:41:45;6.22;;;5.53;;
11171;SDS011;5642;50.830;12.082;2024-03-08T06:44:12;7.25;;;5.93;;
11171;SDS011;5642;50.830;12.082;2024-03-08T06:46:37;7.28;;;5.95;;
11171;SDS011;5642;50.830;12.082;2024-03-08T06:49:04;7.25;;;6.13;;
11171;SDS011;5642;50.830;12.082;2024-03-08T06:51:30;7.03;;;6.22;;
11171;SDS011;5642;50.830;12.082;2024-03-08T06:53:57;7.00;;;6.30;;
11171;SDS011;5642;50.830;12.082;2024-03-08T06:56:24;7.53;;;6.63;;
11171;SDS011;5642;50.830;12.082;2024-03-08T06:58:51;6.40;;;5.72;;
11171;SDS011;5642;50.830;12.082;2024-03-08T07:01:18;7.25;;;6.47;;
11171;SDS011;5642;50.830;12.082;2024-03-08T07:03:45;7.43;;;6.50;;
11171;SDS011;5642;50.830;12.082;2024-03-08T07:06:12;7.43;;;6.63;;
11171;SDS011;5642;50.830;12.082;2024-03-08T07:08:45;6.95;;;6.25;;
11171;SDS011;5642;50.830;12.082;2024-03-08T07:11:11;7.75;;;6.82;;
11171;SDS011;5642;50.830;12.082;2024-03-08T07:13:38;8.43;;;6.75;;
11171;SDS011;5642;50.830;12.082;2024-03-08T07:16:05;7.75;;;6.97;;
11171;SDS011;5642;50.830;12.082;2024-03-08T07:18:33;8.00;;;7.20;;
11171;SDS011;5642;50.830;12.082;2024-03-08T07:21:00;7.72;;;6.70;;
11171;SDS011;5642;50.830;12.082;2024-03-08T07:23:27;7.47;;;6.25;;
11171;SDS011;5642;50.830;12.082;2024-03-08T07:26:17;7.18;;;6.47;;
11171;SDS011;5642;50.830;12.082;2024-03-08T07:28:44;7.10;;;6.40;;
11171;SDS011;5642;50.830;12.082;2024-03-08T07:31:11;6.80;;;6.03;;
11171;SDS011;5642;50.830;12.082;2024-03-08T07:33:42;6.63;;;6.03;;
11171;SDS011;5642;50.830;12.082;2024-03-08T07:36:10;6.63;;;6.03;;
11171;SDS011;5642;50.830;12.082;2024-03-08T07:38:38;6.60;;;6.00;;
11171;SDS011;5642;50.830;12.082;2024-03-08T07:41:07;6.55;;;5.85;;
11171;SDS011;5642;50.830;12.082;2024-03-08T07:43:33;7.38;;;6.15;;
11171;SDS011;5642;50.830;12.082;2024-03-08T07:46:07;7.10;;;6.40;;
11171;SDS011;5642;50.830;12.082;2024-03-08T07:48:36;6.55;;;5.85;;
11171;SDS011;5642;50.830;12.082;2024-03-08T07:51:03;8.45;;;5.93;;
11171;SDS011;5642;50.830;12.082;2024-03-08T07:53:31;6.55;;;5.95;;
11171;SDS011;5642;50.830;12.082;2024-03-08T07:55:57;6.18;;;5.57;;
11171;SDS011;5642;50.830;12.082;2024-03-08T07:58:24;6.40;;;5.80;;
11171;SDS011;5642;50.830;12.082;2024-03-08T08:00:56;6.15;;;5.45;;
11171;SDS011;5642;50.830;12.082;2024-03-08T08:03:24;6.18;;;5.50;;
11171;SDS011;5642;50.830;12.082;2024-03-08T08:05:52;6.72;;;6.03;;
11171;SDS011;5642;50.830;12.082;2024-03-08T08:08:20;6.15;;;5.57;;
11171;SDS011;5642;50.830;12.082;2024-03-08T08:10:47;6.68;;;6.00;;
11171;SDS011;5642;50.830;12.082;2024-03-08T08:13:14;6.45;;;5.85;;
11171;SDS011;5642;50.830;12.082;2024-03-08T08:15:41;6.30;;;5.75;;
11171;SDS011;5642;50.830;12.082;2024-03-08T08:18:07;5.78;;;5.28;;
11171;SDS011;5642;50.830;12.082;2024-03-08T08:20:36;6.28;;;5.70;;
11171;SDS011;5642;50.830;12.082;2024-03-08T08:23:03;5.97;;;5.38;;
11171;SDS011;5642;50.830;12.082;2024-03-08T08:25:29;5.70;;;5.20;;
11171;SDS011;5642;50.830;12.082;2024-03-08T08:27:56;5.60;;;5.10;;
11171;SDS011;5642;50.830;12.082;2024-03-08T08:30:22;5.68;;;5.18;;
11171;SDS011;5642;50.830;12.082;2024-03-08T08:32:48;5.50;;;5.00;;
11171;SDS011;5642;50.830;12.082;2024-03-08T08:35:14;5.38;;;4.88;;
11171;SDS011;5642;50.830;12.082;2024-03-08T08:37:42;4.95;;;4.55;;
11171;SDS011;5642;50.830;12.082;2024-03-08T08:40:12;4.78;;;4.28;;
11171;SDS011;5642;50.830;12.082;2024-03-08T08:42:44;5.20;;;4.43;;
11171;SDS011;5642;50.830;12.082;2024-03-08T08:45:11;5.15;;;4.72;;
11171;SDS011;5642;50.830;12.082;2024-03-08T08:47:46;4.93;;;4.53;;
11171;SDS011;5642;50.830;12.082;2024-03-08T08:50:15;5.18;;;4.68;;
11171;SDS011;5642;50.830;12.082;2024-03-08T08:52:46;5.13;;;4.65;;
11171;SDS011;5642;50.830;12.082;2024-03-08T08:55:12;5.15;;;4.65;;
11171;SDS011;5642;50.830;12.082;2024-03-08T08:57:40;4.90;;;4.40;;
11171;SDS011;5642;50.830;12.082;2024-03-08T09:00:08;4.75;;;4.10;;
11171;SDS011;5642;50.830;12.082;2024-03-08T09:02:38;4.88;;;4.47;;
11171;SDS011;5642;50.830;12.082;2024-03-08T09:05:05;5.00;;;4.45;;
11171;SDS011;5642;50.830;12.082;2024-03-08T09:07:31;4.53;;;4.13;;
11171;SDS011;5642;50.830;12.082;2024-03-08T09:09:59;4.60;;;4.20;;
11171;SDS011;5642;50.830;12.082;2024-03-08T09:12:26;4.65;;;4.28;;
11171;SDS011;5642;50.830;12.082;2024-03-08T09:14:54;3.97;;;3.65;;
11171;SDS011;5642;50.830;12.082;2024-03-08T09:17:24;4.68;;;4.28;;
11171;SDS011;5642;50.830;12.082;2024-03-08T09:19:50;5.88;;;4.93;;
11171;SDS011;5642;50.830;12.082;2024-03-08T09:22:17;4.90;;;4.47;;
11171;SDS011;5642;50.830;12.082;2024-03-08T09:24:45;4.88;;;4.47;;
11171;SDS011;5642;50.830;12.082;2024-03-08T09:27:14;4.80;;;4.40;;
11171;SDS011;5642;50.830;12.082;2024-03-08T09:29:40;5.35;;;4.85;;
11171;SDS011;5642;50.830;12.082;2024-03-08T09:32:07;5.32;;;4.82;;
11171;SDS011;5642;50.830;12.082;2024-03-08T09:34:33;5.15;;;4.75;;
11171;SDS011;5642;50.830;12.082;2024-03-08T09:37:00;5.25;;;4.75;;
11171;SDS011;5642;50.830;12.082;2024-03-08T09:39:26;6.00;;;5.28;;
11171;SDS011;5642;50.830;12.082;2024-03-08T09:41:56;5.63;;;4.75;;
11171;SDS011;5642;50.830;12.082;2024-03-08T09:44:23;5.38;;;4.78;;
11171;SDS011;5642;50.830;12.082;2024-03-08T09:46:50;5.57;;;5.07;;
11171;SDS011;5642;50.830;12.082;2024-03-08T09:49:20;5.40;;;4.90;;
11171;SDS011;5642;50.830;12.082;2024-03-08T09:51:48;5.20;;;4.72;;
11171;SDS011;5642;50.830;12.082;2024-03-08T09:54:18;5.38;;;4.88;;
11171;SDS011;5642;50.830;12.082;2024-03-08T09:56:51;4.72;;;4.32;;
11171;SDS011;5642;50.830;12.082;2024-03-08T09:59:19;5.18;;;4.72;;
11171;SDS011;5642;50.830;12.082;2024-03-08T10:02:09;4.43;;;4.10;;
11171;SDS011;5642;50.830;12.082;2024-03-08T10:04:43;4.75;;;4.35;;
11171;SDS011;5642;50.830;12.082;2024-03-08T10:07:12;4.93;;;4.43;;
11171;SDS011;5642;50.830;12.082;2024-03-08T10:09:40;5.10;;;4.70;;
11171;SDS011;5642;50.830;12.082;2024-03-08T10:12:16;4.60;;;4.20;;
11171;SDS011;5642;50.830;12.082;2024-03-08T10:14:44;5.38;;;4.88;;
11171;SDS011;5642;50.830;12.082;2024-03-08T10:17:14;5.03;;;4.53;;
11171;SDS011;5642;50.830;12.082;2024-03-08T10:19:49;5.75;;;5.15;;
11171;SDS011;5642;50.830;12.082;2024-03-08T10:22:18;4.70;;;4.30;;
11171;SDS011;5642;50.830;12.082;2024-03-08T10:24:48;4.78;;;4.38;;
11171;SDS011;5642;50.830;12.082;2024-03-08T10:27:17;5.20;;;4.80;;
11171;SDS011;5642;50.830;12.082;2024-03-08T10:29:48;5.13;;;4.63;;
11171;SDS011;5642;50.830;12.082;2024-03-08T10:32:14;5.40;;;4.93;;
11171;SDS011;5642;50.830;12.082;2024-03-08T10:34:43;5.40;;;4.90;;
11171;SDS011;5642;50.830;12.082;2024-03-08T10:37:16;5.22;;;4.75;;
11171;SDS011;5642;50.830;12.082;2024-03-08T10:39:58;5.00;;;4.60;;
11171;SDS011;5642;50.830;12.082;2024-03-08T10:42:57;4.85;;;4.43;;
11171;SDS011;5642;50.830;12.082;2024-03-08T10:47:59;5.10;;;4.63;;
11171;SDS011;5642;50.830;12.082;2024-03-08T10:50:43;5.18;;;4.68;;
11171;SDS011;5642;50.830;12.082;2024-03-08T10:53:17;5.32;;;4.82;;
11171;SDS011;5642;50.830;12.082;2024-03-08T10:55:47;4.90;;;4.40;;
11171;SDS011;5642;50.830;12.082;2024-03-08T10:58:16;4.70;;;4.30;;
11171;SDS011;5642;50.830;12.082;2024-03-08T11:00:50;4.75;;;4.35;;
11171;SDS011;5642;50.830;12.082;2024-03-08T11:06:29;5.40;;;4.35;;
11171;SDS011;5642;50.830;12.082;2024-03-08T11:09:49;4.70;;;4.30;;
11171;SDS011;5642;50.830;12.082;2024-03-08T11:15:10;4.38;;;3.97;;
11171;SDS011;5642;50.830;12.082;2024-03-08T11:20:10;4.57;;;4.18;;
11171;SDS011;5642;50.830;12.082;2024-03-08T11:23:06;4.25;;;3.88;;
11171;SDS011;5642;50.830;12.082;2024-03-08T11:25:39;5.22;;;4.53;;
11171;SDS011;5642;50.830;12.082;2024-03-08T11:28:18;4.45;;;4.05;;
11171;SDS011;5642;50.830;12.082;2024-03-08T11:33:29;4.47;;;4.07;;
11171;SDS011;5642;50.830;12.082;2024-03-08T11:41:25;4.65;;;4.25;;
11171;SDS011;5642;50.830;12.082;2024-03-08T11:44:25;5.70;;;5.20;;
11171;SDS011;5642;50.830;12.082;2024-03-08T11:46:45;4.45;;;4.05;;
11171;SDS011;5642;50.830;12.082;2024-03-08T11:49:16;5.65;;;4.30;;
11171;SDS011;5642;50.830;12.082;2024-03-08T11:51:43;5.38;;;4.88;;
11171;SDS011;5642;50.830;12.082;2024-03-08T11:54:11;5.20;;;4.55;;
11171;SDS011;5642;50.830;12.082;2024-03-08T11:56:45;4.95;;;4.55;;
11171;SDS011;5642;50.830;12.082;2024-03-08T11:59:13;5.80;;;5.28;;
11171;SDS011;5642;50.830;12.082;2024-03-08T12:01:41;5.90;;;5.38;;
11171;SDS011;5642;50.830;12.082;2024-03-08T12:04:11;5.65;;;4.53;;
11171;SDS011;5642;50.830;12.082;2024-03-08T12:06:39;5.45;;;4.95;;
11171;SDS011;5642;50.830;12.082;2024-03-08T12:09:12;5.00;;;4.50;;
11171;SDS011;5642;50.830;12.082;2024-03-08T12:11:40;6.07;;;4.97;;
11171;SDS011;5642;50.830;12.082;2024-03-08T12:14:09;6.63;;;5.32;;
11171;SDS011;5642;50.830;12.082;2024-03-08T12:16:37;5.10;;;4.60;;
11171;SDS011;5642;50.830;12.082;2024-03-08T12:19:03;5.88;;;5.22;;
11171;SDS011;5642;50.830;12.082;2024-03-08T12:21:32;6.65;;;5.32;;
11171;SDS011;5642;50.830;12.082;2024-03-08T12:24:10;8.15;;;5.07;;
11171;SDS011;5642;50.830;12.082;2024-03-08T12:26:37;5.32;;;4.82;;
11171;SDS011;5642;50.830;12.082;2024-03-08T12:29:16;6.47;;;5.57;;
11171;SDS011;5642;50.830;12.082;2024-03-08T12:31:52;7.30;;;6.15;;
11171;SDS011;5642;50.830;12.082;2024-03-08T12:34:24;6.57;;;5.57;;
11171;SDS011;5642;50.830;12.082;2024-03-08T12:36:53;6.88;;;5.97;;
11171;SDS011;5642;50.830;12.082;2024-03-08T12:39:21;8.48;;;6.18;;
11171;SDS011;5642;50.830;12.082;2024-03-08T12:41:50;6.90;;;5.80;;
11171;SDS011;5642;50.830;12.082;2024-03-08T12:44:18;7.00;;;5.75;;
11171;SDS011;5642;50.830;12.082;2024-03-08T12:46:47;6.95;;;6.25;;
11171;SDS011;5642;50.830;12.082;2024-03-08T12:49:14;6.20;;;5.60;;
11171;SDS011;5642;50.830;12.082;2024-03-08T12:51:44;7.32;;;5.80;;
11171;SDS011;5642;50.830;12.082;2024-03-08T12:54:12;6.10;;;5.50;;
11171;SDS011;5642;50.830;12.082;2024-03-08T12:56:38;5.82;;;4.88;;
11171;SDS011;5642;50.830;12.082;2024-03-08T12:59:07;6.10;;;5.10;;
11171;SDS011;5642;50.830;12.082;2024-03-08T13:01:39;4.97;;;4.47;;
11171;SDS011;5642;50.830;12.082;2024-03-08T13:04:06;6.13;;;5.40;;
11171;SDS011;5642;50.830;12.082;2024-03-08T13:06:35;5.22;;;4.72;;
11171;SDS011;5642;50.830;12.082;2024-03-08T13:09:04;6.78;;;5.80;;
11171;SDS011;5642;50.830;12.082;2024-03-08T13:11:32;5.97;;;5.38;;
11171;SDS011;5642;50.830;12.082;2024-03-08T13:14:03;6.32;;;5.40;;
11171;SDS011;5642;50.830;12.082;2024-03-08T13:16:31;6.15;;;5.28;;
11171;SDS011;5642;50.830;12.082;2024-03-08T13:18:57;5.97;;;5.28;;
11171;SDS011;5642;50.830;12.082;2024-03-08T13:21:24;6.45;;;5.13;;
11171;SDS011;5642;50.830;12.082;2024-03-08T13:23:55;5.63;;;5.13;;
11171;SDS011;5642;50.830;12.082;2024-03-08T13:26:23;4.97;;;4.47;;
11171;SDS011;5642;50.830;12.082;2024-03-08T13:28:51;5.38;;;4.88;;
11171;SDS011;5642;50.830;12.082;2024-03-08T13:31:22;5.05;;;4.55;;
11171;SDS011;5642;50.830;12.082;2024-03-08T13:33:49;4.82;;;4.32;;
11171;SDS011;5642;50.830;12.082;2024-03-08T13:36:18;4.80;;;4.00;;
11171;SDS011;5642;50.830;12.082;2024-03-08T13:38:48;4.47;;;4.07;;
11171;SDS011;5642;50.830;12.082;2024-03-08T13:41:15;4.38;;;3.97;;
11171;SDS011;5642;50.830;12.082;2024-03-08T13:43:51;5.30;;;4.53;;
11171;SDS011;5642;50.830;12.082;2024-03-08T13:46:18;6.15;;;5.30;;
11171;SDS011;5642;50.830;12.082;2024-03-08T13:48:45;6.03;;;5.43;;
11171;SDS011;5642;50.830;12.082;2024-03-08T13:51:11;5.60;;;5.10;;
11171;SDS011;5642;50.830;12.082;2024-03-08T13:53:41;6.15;;;5.55;;
11171;SDS011;5642;50.830;12.082;2024-03-08T13:56:07;4.93;;;4.43;;
11171;SDS011;5642;50.830;12.082;2024-03-08T13:58:36;5.47;;;4.97;;
11171;SDS011;5642;50.830;12.082;2024-03-08T14:01:06;5.63;;;5.13;;
11171;SDS011;5642;50.830;12.082;2024-03-08T14:03:37;5.28;;;4.78;;
11171;SDS011;5642;50.830;12.082;2024-03-08T14:06:08;5.75;;;5.22;;
11171;SDS011;5642;50.830;12.082;2024-03-08T14:08:36;6.30;;;5.15;;
11171;SDS011;5642;50.830;12.082;2024-03-08T14:11:06;4.40;;;4.00;;
11171;SDS011;5642;50.830;12.082;2024-03-08T14:13:44;5.70;;;4.97;;
11171;SDS011;5642;50.830;12.082;2024-03-08T14:16:11;6.13;;;5.53;;
11171;SDS011;5642;50.830;12.082;2024-03-08T14:18:41;5.53;;;4.93;;
11171;SDS011;5642;50.830;12.082;2024-03-08T14:21:08;6.05;;;5.45;;
11171;SDS011;5642;50.830;12.082;2024-03-08T14:23:35;6.30;;;5.13;;
11171;SDS011;5642;50.830;12.082;2024-03-08T14:26:06;6.18;;;5.45;;
11171;SDS011;5642;50.830;12.082;2024-03-08T14:28:35;5.75;;;5.15;;
11171;SDS011;5642;50.830;12.082;2024-03-08T14:31:03;5.97;;;5.38;;
11171;SDS011;5642;50.830;12.082;2024-03-08T14:33:30;5.57;;;5.07;;
11171;SDS011;5642;50.830;12.082;2024-03-08T14:35:57;6.35;;;5.65;;
11171;SDS011;5642;50.830;12.082;2024-03-08T14:38:23;5.90;;;5.30;;
11171;SDS011;5642;50.830;12.082;2024-03-08T14:40:54;5.80;;;5.18;;
11171;SDS011;5642;50.830;12.082;2024-03-08T14:43:22;5.95;;;5.38;;
11171;SDS011;5642;50.830;12.082;2024-03-08T14:45:49;5.88;;;5.22;;
11171;SDS011;5642;50.830;12.082;2024-03-08T14:48:17;6.13;;;5.53;;
11171;SDS011;5642;50.830;12.082;2024-03-08T14:50:45;6.95;;;5.70;;
11171;SDS011;5642;50.830;12.082;2024-03-08T14:53:23;5.85;;;5.20;;
11171;SDS011;5642;50.830;12.082;2024-03-08T14:55:51;6.50;;;5.90;;
11171;SDS011;5642;50.830;12.082;2024-03-08T14:58:22;6.60;;;5.80;;
11171;SDS011;5642;50.830;12.082;2024-03-08T15:00:54;6.82;;;6.13;;
11171;SDS011;5642;50.830;12.082;2024-03-08T15:03:23;6.28;;;5.68;;
11171;SDS011;5642;50.830;12.082;2024-03-08T15:05:53;7.05;;;6.32;;
11171;SDS011;5642;50.830;12.082;2024-03-08T15:08:20;7.80;;;6.88;;
11171;SDS011;5642;50.830;12.082;2024-03-08T15:10:49;6.93;;;6.22;;
11171;SDS011;5642;50.830;12.082;2024-03-08T15:13:27;7.28;;;6.57;;
11171;SDS011;5642;50.830;12.082;2024-03-08T15:16:00;8.00;;;6.38;;
11171;SDS011;5642;50.830;12.082;2024-03-08T15:18:28;7.18;;;6.47;;